Soaring Guidance
Issued by NWS Reno, NV

Home | Current Version | Previous Version | Text Only | Print | Product List | Glossary On
Versions: 1 2 3 4 5 6 7 8 9 10 11 12 13 14
000
UXUS97 KREV 281347
SRGREV

SOARING FORECAST
NATIONAL WEATHER SERVICE - RENO NV
700 AM PDT FRI AUG 28 2015

THIS SOARING FORECAST IS FOR THE EASTERN SIERRA AND WESTERN NEVADA
WITH SPECIFIC INDICES FOR THE GREATER RENO AREA.

THIS FORECAST IS PREPARED DAILY BY 700 AM AND IS NOT UPDATED.

FOR CURRENT FLIGHT CONDITIONS...FORECASTS...AND ADVISORIES...ACCESS
YOUR LOCAL BRIEFING OUTLET OR FLIGHT SERVICE STATION.

*******************************************************************
FORECASTED LOCAL INDICES FOR RENO:        TODAY     YESTERDAY
FORECASTED MAX TEMP AT RENO (DEG F).....     92          94
FORECASTED TRIGGER TEMPERATURE (DEG F)..     80          78
   EXCEEDED YESTERDAY BY 1055 AM PDT
FORECASTED MAXIMUM ALTITUDE (FT MSL)....  17400       18000
FORECASTED SOARING INDEX (FPM)..........   1182        1116
FORECASTED K-INDEX.........VALID 18Z....     12          21
FORECASTED K-INDEX.........VALID 00Z....     18          30
FORECASTED LIFTED INDEX....VALID 18Z....      6           5
FORECASTED LIFTED INDEX....VALID 00Z....      4           0

AFTERNOON WINDS ALOFT FORECAST
MSL (FT) WIND/TEMP
9000  2313/+16
10000 2113/+13
12000 2013/+08
14000 2016/+03
16000 2020/-02
18000 2032/-07
24000 2138/-19
30000 2242/-33
34000 2242/-44
39000 2462/-57

SLIDE MOUNTAIN DATA:
     DATE       TIME     TEMP  DEWPT   RH         WIND (MPH)
                        (F)   (F)           | DIR  SPEED GUST
2015-08-28    05:50      52    30     40    | 236    8   17
2015-08-28    05:30      52    30     40    | 234    8   16
2015-08-28    05:20      52    30     39    | 239    9   17
2015-08-28    05:00      52    30     39    | 238   10   18

RENO TAF FORECAST:
KRNO 281122Z 2812/2912 VRB04KT P6SM FEW140 SCT200
     FM282100 25014G24KT P6SM SCT140 OVC200
     FM290400 VRB05KT P6SM SCT150 BKN200
     FM291100 17012KT P6SM SCT200

CARSON CITY TAF FORECAST:
KCXP 281122Z 2812/2912 VRB04KT P6SM SCT200
     FM282100 23014G24KT P6SM FEW130 OVC200
     FM290400 22005KT P6SM BKN200
     FM291000 23010G18KT P6SM SCT200

OUTLOOK FOR THE RENO-CARSON CITY-MINDEN AREA:
.SATURDAY...MOSTLY CLOUDY IN THE MORNING THEN BECOMING PARTLY
CLOUDY. AREAS OF BLOWING DUST POSSIBLE IN THE MORNING. HIGHS 78
TO 83. SOUTHWEST WINDS 20 TO 35 MPH. GUSTS UP TO 50 MPH DECREASING
TO 40 MPH IN THE AFTERNOON.

SUNRISE AND SUNSET
AUGUST 28 2015........SUNRISE   624 AM PDT   SUNSET   736 PM PDT
AUGUST 29 2015........SUNRISE   624 AM PDT   SUNSET   735 PM PDT


USA.gov is the U.S. government's official web portal to all federal, state and local government web resources and services.